Time;durP1;ratioP1;P1;durP2;ratioP2;P2;SDS_P1;SDS_P2;PMS_P1;PMS_P2;Temp;Humidity;BMP_temperature;BMP_pressure;BME280_temperature;BME280_humidity;BME280_pressure;Samples;Min_cycle;Max_cycle;Signal;HPM_P1;HPM_P2
2023/01/12 00:00:35;;;;;;;11.02;2.60;;;9.40;88.10;;;;;;9182241;19;20010;-69
2023/01/12 00:03:37;;;;;;;20.88;2.55;;;9.40;88.00;;;;;;9183396;19;20042;-69
2023/01/12 00:06:39;;;;;;;11.52;2.35;;;9.40;88.10;;;;;;9182673;19;20090;-69
2023/01/12 00:09:40;;;;;;;13.98;2.10;;;9.40;88.20;;;;;;9181422;19;20480;-69
2023/01/12 00:12:42;;;;;;;19.33;2.95;;;9.40;88.10;;;;;;9183221;19;20013;-70
2023/01/12 00:19:16;;;;;;;13.60;2.22;;;9.40;88.20;;;;;;9182516;19;20015;-70
2023/01/12 00:22:18;;;;;;;14.23;2.30;;;9.40;88.10;;;;;;9180896;19;20015;-68
2023/01/12 00:25:19;;;;;;;12.65;2.65;;;9.40;88.10;;;;;;9181964;19;20018;-68
2023/01/12 00:28:20;;;;;;;13.50;2.80;;;9.40;88.20;;;;;;9179417;19;20011;-70
2023/01/12 00:31:22;;;;;;;9.35;2.00;;;9.50;88.30;;;;;;9181495;19;20007;-70
2023/01/12 00:34:24;;;;;;;7.57;2.05;;;9.40;88.20;;;;;;9181024;19;20371;-70
2023/01/12 00:37:26;;;;;;;6.88;1.70;;;9.40;88.30;;;;;;9178186;19;20014;-70
2023/01/12 00:40:27;;;;;;;5.70;1.52;;;9.40;88.20;;;;;;9181008;19;20015;-69
2023/01/12 00:46:48;;;;;;;6.43;1.63;;;9.40;88.30;;;;;;9180003;19;20042;-68
2023/01/12 00:49:50;;;;;;;6.82;1.70;;;9.40;88.30;;;;;;9181192;19;20482;-68
2023/01/12 00:52:51;;;;;;;5.78;1.75;;;9.40;88.30;;;;;;9177217;19;20034;-68
2023/01/12 00:55:53;;;;;;;7.00;1.80;;;9.40;88.30;;;;;;9180061;19;20045;-69
2023/01/12 00:58:54;;;;;;;4.85;1.40;;;9.40;88.40;;;;;;9180943;19;20022;-70
2023/01/12 01:01:56;;;;;;;12.55;1.60;;;9.40;88.40;;;;;;9181397;19;20081;-70
2023/01/12 01:04:57;;;;;;;6.22;1.60;;;9.40;88.40;;;;;;9181104;19;20022;-70
2023/01/12 01:07:58;;;;;;;9.63;1.48;;;9.40;88.40;;;;;;9181339;19;20010;-71
2023/01/12 01:11:09;;;;;;;13.20;2.55;;;9.40;88.40;;;;;;9175932;19;20022;-70
2023/01/12 01:14:11;;;;;;;4.93;1.52;;;9.40;88.40;;;;;;9180257;19;20027;-69
2023/01/12 01:17:12;;;;;;;15.02;1.92;;;9.40;88.40;;;;;;9176706;19;20048;-70
2023/01/12 01:20:14;;;;;;;9.32;1.70;;;9.40;88.50;;;;;;9179938;19;20018;-70
2023/01/12 01:23:15;;;;;;;8.10;1.60;;;9.40;88.50;;;;;;9177341;19;20022;-70
2023/01/12 01:26:20;;;;;;;5.65;1.38;;;9.40;88.50;;;;;;9178621;19;20022;-68
2023/01/12 01:29:21;;;;;;;13.23;2.38;;;9.40;88.50;;;;;;9180385;19;20016;-70
2023/01/12 01:32:23;;;;;;;11.52;1.48;;;9.40;88.50;;;;;;9178715;19;20019;-68
2023/01/12 01:35:24;;;;;;;8.48;1.83;;;9.40;88.60;;;;;;9178547;19;20018;-70
2023/01/12 01:38:26;;;;;;;6.35;1.80;;;9.40;88.60;;;;;;9179672;19;20015;-69
2023/01/12 01:41:30;;;;;;;7.07;2.13;;;9.40;88.60;;;;;;9179670;19;20078;-68
2023/01/12 01:44:32;;;;;;;6.82;1.95;;;9.40;88.60;;;;;;9179638;19;20033;-70
2023/01/12 01:47:38;;;;;;;10.18;2.78;;;9.40;88.60;;;;;;9179014;19;20318;-69
2023/01/12 01:50:52;;;;;;;9.52;2.92;;;9.40;89.30;;;;;;9178958;19;20038;-69
2023/01/12 01:53:54;;;;;;;11.20;2.40;;;9.40;88.70;;;;;;9173499;19;20014;-69
2023/01/12 01:56:56;;;;;;;12.05;2.60;;;9.40;88.70;;;;;;9174041;19;20015;-69
2023/01/12 01:59:59;;;;;;;6.93;2.95;;;9.40;88.80;;;;;;9178841;19;20018;-69
2023/01/12 02:03:03;;;;;;;13.10;2.83;;;9.30;88.80;;;;;;9178856;19;20765;-69
2023/01/12 02:06:06;;;;;;;8.73;3.00;;;9.40;88.90;;;;;;9178227;19;20015;-69
2023/01/12 02:09:16;;;;;;;16.90;2.95;;;9.30;88.80;;;;;;9177807;19;20336;-68
2023/01/12 02:16:21;;;;;;;17.58;3.38;;;9.30;88.90;;;;;;9175830;19;20011;-68
2023/01/12 02:19:36;;;;;;;9.40;2.80;;;9.40;89.00;;;;;;9177523;19;20471;-69
2023/01/12 02:22:56;;;;;;;9.85;2.88;;;9.30;89.00;;;;;;9175080;19;20026;-69
2023/01/12 02:26:35;;;;;;;18.05;3.22;;;9.40;89.00;;;;;;9177821;19;20014;-69
2023/01/12 02:30:04;;;;;;;20.85;3.28;;;9.40;89.10;;;;;;9176930;19;20015;-70
2023/01/12 02:33:23;;;;;;;11.82;4.03;;;9.40;89.00;;;;;;9177856;19;20018;-69
2023/01/12 02:36:32;;;;;;;11.60;3.13;;;9.40;89.10;;;;;;9174396;19;20038;-69
2023/01/12 02:39:58;;;;;;;16.10;3.00;;;9.40;89.10;;;;;;9178395;19;20471;-69
2023/01/12 02:43:14;;;;;;;8.02;2.80;;;9.40;89.20;;;;;;9177098;19;20031;-69
2023/01/12 02:46:26;;;;;;;11.00;2.88;;;9.50;89.30;;;;;;9173465;19;20023;-68
2023/01/12 02:49:35;;;;;;;14.00;3.00;;;9.50;89.30;;;;;;9177114;19;20074;-68
2023/01/12 02:52:39;;;;;;;11.68;2.60;;;9.50;89.30;;;;;;9173090;19;20098;-69
2023/01/12 02:55:41;;;;;;;17.63;3.08;;;9.50;89.30;;;;;;9175863;19;20361;-70
2023/01/12 02:58:53;;;;;;;12.48;2.08;;;9.50;89.30;;;;;;9176445;19;20369;-70
2023/01/12 03:02:02;;;;;;;10.88;2.95;;;9.50;89.40;;;;;;9176336;19;20078;-70
2023/01/12 03:05:04;;;;;;;12.75;2.70;;;9.50;89.30;;;;;;9175536;19;20466;-70
2023/01/12 03:08:11;;;;;;;13.65;2.55;;;9.50;89.40;;;;;;9176249;19;20023;-70
2023/01/12 03:11:15;;;;;;;5.95;1.85;;;9.60;89.40;;;;;;9174326;19;20515;-70
2023/01/12 03:14:17;;;;;;;15.50;2.35;;;9.60;89.40;;;;;;9175653;19;20029;-70
2023/01/12 03:17:39;;;;;;;7.72;2.00;;;9.60;89.40;;;;;;9172174;19;20367;-70
2023/01/12 03:20:51;;;;;;;7.20;1.40;;;9.60;89.60;;;;;;9176134;19;20297;-70
2023/01/12 03:24:04;;;;;;;8.10;1.65;;;9.60;89.50;;;;;;9175983;19;20467;-70
2023/01/12 03:27:15;;;;;;;8.32;1.63;;;9.60;89.60;;;;;;9173936;19;20385;-70
2023/01/12 03:30:32;;;;;;;12.25;2.05;;;9.60;89.60;;;;;;9175993;19;20016;-70
2023/01/12 03:33:34;;;;;;;6.53;1.67;;;9.60;89.70;;;;;;9175122;19;20370;-69
2023/01/12 03:36:44;;;;;;;8.35;1.70;;;9.60;89.60;;;;;;9172646;19;20105;-70
2023/01/12 03:39:54;;;;;;;8.15;1.52;;;9.60;89.60;;;;;;9174651;19;20062;-68
2023/01/12 03:43:25;;;;;;;8.50;1.77;;;9.60;89.60;;;;;;9172604;19;20337;-70
2023/01/12 03:46:33;;;;;;;5.55;1.23;;;9.60;89.70;;;;;;9171844;19;20499;-69
2023/01/12 03:49:44;;;;;;;7.68;1.55;;;9.60;89.60;;;;;;9173318;19;20020;-70
2023/01/12 03:52:47;;;;;;;10.45;1.70;;;9.60;89.70;;;;;;9170252;19;20540;-69
2023/01/12 03:56:02;;;;;;;8.80;1.80;;;9.60;89.70;;;;;;9174128;19;20476;-68
2023/01/12 03:59:04;;;;;;;9.48;1.92;;;9.60;89.70;;;;;;9182649;19;20014;-68
2023/01/12 04:02:05;;;;;;;5.78;1.58;;;9.70;89.70;;;;;;9183503;19;20028;-70
2023/01/12 04:05:08;;;;;;;7.72;1.92;;;9.70;89.70;;;;;;9182391;19;20025;-71
2023/01/12 04:08:13;;;;;;;6.85;1.70;;;9.70;89.70;;;;;;9181967;19;20464;-68
2023/01/12 04:14:36;;;;;;;7.40;1.63;;;9.70;89.80;;;;;;9182389;19;20399;-69
2023/01/12 04:17:37;;;;;;;9.95;1.35;;;9.70;89.80;;;;;;9179772;19;20078;-70
2023/01/12 04:20:39;;;;;;;6.85;1.73;;;9.70;89.80;;;;;;9182706;19;20019;-70
2023/01/12 04:23:40;;;;;;;6.13;1.90;;;9.70;89.80;;;;;;9182513;19;20022;-68
2023/01/12 04:26:42;;;;;;;10.55;1.48;;;9.70;89.80;;;;;;9181620;19;20022;-69
2023/01/12 04:29:44;;;;;;;12.75;1.88;;;9.70;89.80;;;;;;9180543;19;20011;-69
2023/01/12 04:32:45;;;;;;;14.38;1.70;;;9.70;89.80;;;;;;9181942;19;20046;-69
2023/01/12 04:35:47;;;;;;;15.63;2.40;;;9.70;89.80;;;;;;9180699;19;20018;-70
2023/01/12 04:38:49;;;;;;;7.72;1.20;;;9.70;89.90;;;;;;9181547;19;20010;-69
2023/01/12 04:41:50;;;;;;;9.57;1.83;;;9.70;89.90;;;;;;9182167;19;20017;-70
2023/01/12 04:44:51;;;;;;;14.52;1.50;;;9.70;89.90;;;;;;9181111;19;20006;-69
2023/01/12 04:47:53;;;;;;;12.95;1.50;;;9.70;89.90;;;;;;9181450;19;20010;-70
2023/01/12 04:50:54;;;;;;;11.93;1.73;;;9.70;89.90;;;;;;9181142;19;20014;-70
2023/01/12 04:53:55;;;;;;;9.18;1.58;;;9.70;89.90;;;;;;9177518;19;20014;-71
2023/01/12 04:56:57;;;;;;;5.70;1.38;;;9.70;89.90;;;;;;9178699;19;20015;-70
2023/01/12 04:59:58;;;;;;;12.10;2.30;;;9.70;90.00;;;;;;9181232;19;20479;-70
2023/01/12 05:03:01;;;;;;;9.52;1.40;;;9.70;90.00;;;;;;9180918;19;20609;-68
2023/01/12 05:06:03;;;;;;;5.65;1.73;;;9.70;90.00;;;;;;9180331;19;20019;-70
2023/01/12 05:12:24;;;;;;;10.68;1.27;;;9.70;90.00;;;;;;9181474;19;20015;-68
2023/01/12 05:15:26;;;;;;;11.55;1.60;;;9.70;90.00;;;;;;9180001;19;20017;-68
2023/01/12 05:18:27;;;;;;;16.00;1.42;;;9.70;90.00;;;;;;9180739;19;20010;-70
2023/01/12 05:21:29;;;;;;;5.88;1.00;;;9.70;90.00;;;;;;9181171;19;20041;-68
2023/01/12 05:24:30;;;;;;;5.97;1.20;;;9.70;90.00;;;;;;9180382;19;20014;-71
2023/01/12 05:27:31;;;;;;;5.40;1.25;;;9.70;90.00;;;;;;9180252;19;20010;-71
2023/01/12 05:30:33;;;;;;;3.00;1.10;;;9.60;89.90;;;;;;9177899;19;20031;-68
2023/01/12 05:33:36;;;;;;;6.05;1.33;;;9.60;89.90;;;;;;9180107;19;20070;-70
2023/01/12 05:36:37;;;;;;;5.93;1.10;;;9.60;89.90;;;;;;9177292;19;20030;-70
2023/01/12 05:39:38;;;;;;;16.15;2.45;;;9.60;90.00;;;;;;9179241;19;20014;-69
2023/01/12 05:46:04;;;;;;;4.78;1.13;;;9.60;89.90;;;;;;9179376;19;20024;-69
2023/01/12 05:49:06;;;;;;;7.13;1.27;;;9.60;90.00;;;;;;9179975;19;20015;-70
2023/01/12 05:52:08;;;;;;;7.13;1.48;;;9.60;90.00;;;;;;9179229;19;20019;-70
2023/01/12 05:55:09;;;;;;;5.25;1.58;;;9.60;90.00;;;;;;9173924;19;20046;-70
2023/01/12 05:58:10;;;;;;;5.88;1.50;;;9.60;90.30;;;;;;9178595;19;20472;-69
2023/01/12 06:01:12;;;;;;;3.88;1.23;;;9.50;90.00;;;;;;9178941;19;20053;-69
2023/01/12 06:04:13;;;;;;;8.85;1.70;;;9.60;90.00;;;;;;9177346;19;20109;-69
2023/01/12 06:07:15;;;;;;;8.52;1.98;;;9.60;90.10;;;;;;9177036;19;20132;-69
2023/01/12 06:10:17;;;;;;;6.75;1.77;;;9.60;90.10;;;;;;9176990;19;20025;-69
2023/01/12 06:16:40;;;;;;;9.95;1.25;;;9.60;90.10;;;;;;9175409;19;20074;-69
2023/01/12 06:19:41;;;;;;;5.90;1.10;;;9.60;90.10;;;;;;9176097;19;20162;-69
2023/01/12 06:22:44;;;;;;;7.50;1.10;;;9.60;90.10;;;;;;9177830;19;20014;-69
2023/01/12 06:25:45;;;;;;;4.47;0.82;;;9.60;90.10;;;;;;9178564;19;20018;-70
2023/01/12 06:28:47;;;;;;;11.07;1.80;;;9.60;90.10;;;;;;9177748;19;20023;-69
2023/01/12 06:31:48;;;;;;;6.30;1.35;;;9.60;90.10;;;;;;9177729;19;20007;-70
2023/01/12 06:34:49;;;;;;;6.80;1.20;;;9.60;90.20;;;;;;9177920;19;20006;-71
2023/01/12 06:37:55;;;;;;;7.55;1.33;;;9.60;90.20;;;;;;9174254;19;20015;-70
2023/01/12 06:41:06;;;;;;;5.10;1.17;;;9.60;90.20;;;;;;9176605;19;20021;-68
2023/01/12 06:44:07;;;;;;;4.65;0.88;;;9.60;90.20;;;;;;9175201;19;20010;-70
2023/01/12 06:47:09;;;;;;;5.28;1.42;;;9.70;90.20;;;;;;9175874;19;20016;-68
2023/01/12 06:50:11;;;;;;;2.20;0.80;;;9.60;90.20;;;;;;9177373;19;20501;-70
2023/01/12 06:53:12;;;;;;;6.53;1.23;;;9.70;90.30;;;;;;9173347;19;20015;-70
2023/01/12 06:56:13;;;;;;;6.13;1.13;;;9.70;90.30;;;;;;9175031;19;20025;-69
2023/01/12 06:59:15;;;;;;;4.38;1.20;;;9.70;90.30;;;;;;9172836;19;20111;-70
2023/01/12 07:02:16;;;;;;;3.72;0.77;;;9.70;90.30;;;;;;9172993;19;20392;-70
2023/01/12 07:05:18;;;;;;;6.45;1.20;;;9.70;90.30;;;;;;9172448;19;20026;-70
2023/01/12 07:08:19;;;;;;;4.38;0.85;;;9.80;90.30;;;;;;9173529;19;20056;-70
2023/01/12 07:11:20;;;;;;;11.38;1.10;;;9.80;90.30;;;;;;9172741;19;20026;-68
2023/01/12 07:14:22;;;;;;;5.38;1.35;;;9.80;90.30;;;;;;9171967;19;20105;-68
2023/01/12 07:17:24;;;;;;;3.60;1.10;;;9.80;90.40;;;;;;9153546;19;20018;-68
2023/01/12 07:20:27;;;;;;;6.78;1.13;;;9.80;90.40;;;;;;9164061;19;20018;-68
2023/01/12 07:23:28;;;;;;;8.18;0.90;;;9.80;90.30;;;;;;9162780;19;20026;-69
2023/01/12 07:26:30;;;;;;;6.40;0.93;;;9.90;90.40;;;;;;9161283;19;20148;-69
2023/01/12 07:29:31;;;;;;;2.72;0.98;;;9.90;90.40;;;;;;9162216;19;20029;-68
2023/01/12 07:32:33;;;;;;;3.22;0.80;;;9.90;90.40;;;;;;9173655;19;20023;-68
2023/01/12 07:35:35;;;;;;;4.68;0.60;;;9.90;90.40;;;;;;9166763;19;20015;-68
2023/01/12 07:38:37;;;;;;;10.35;1.48;;;9.90;90.40;;;;;;9168888;19;20077;-70
2023/01/12 07:44:58;;;;;;;1.60;0.90;;;9.90;90.40;;;;;;9173694;19;20368;-70
2023/01/12 07:48:00;;;;;;;1.65;0.90;;;10.00;90.40;;;;;;9181070;19;20072;-69
2023/01/12 07:51:01;;;;;;;2.58;0.80;;;10.00;90.40;;;;;;9180595;19;20029;-69
2023/01/12 07:54:03;;;;;;;2.80;1.00;;;10.00;90.50;;;;;;9170008;19;20014;-70
2023/01/12 07:57:08;;;;;;;1.92;0.75;;;10.00;90.50;;;;;;9173129;19;20020;-70
2023/01/12 08:00:11;;;;;;;3.60;0.70;;;10.00;90.50;;;;;;9175866;19;20044;-70
2023/01/12 08:03:20;;;;;;;2.20;0.88;;;10.00;90.50;;;;;;9167762;19;20492;-68
2023/01/12 08:06:22;;;;;;;3.47;0.82;;;10.00;90.50;;;;;;9174219;19;20022;-69
2023/01/12 08:09:23;;;;;;;4.22;1.00;;;10.00;90.50;;;;;;9179487;19;20010;-69
2023/01/12 08:12:28;;;;;;;2.45;1.00;;;10.10;90.50;;;;;;9176729;19;20039;-69
2023/01/12 08:15:34;;;;;;;2.67;0.93;;;10.10;90.60;;;;;;9180514;19;20015;-69
2023/01/12 08:18:42;;;;;;;6.20;0.90;;;10.10;90.50;;;;;;9177671;19;20085;-69
2023/01/12 08:21:56;;;;;;;2.40;0.70;;;10.10;90.60;;;;;;9181327;19;20019;-69
2023/01/12 08:25:06;;;;;;;4.15;1.08;;;10.10;90.60;;;;;;9179074;19;20026;-69
2023/01/12 08:28:07;;;;;;;4.45;1.05;;;10.20;90.70;;;;;;9176511;19;20064;-69
2023/01/12 08:31:12;;;;;;;2.33;0.88;;;10.10;90.60;;;;;;9175838;19;20019;-69
2023/01/12 08:34:14;;;;;;;1.98;1.02;;;10.10;90.60;;;;;;9178131;19;20014;-69
2023/01/12 08:37:19;;;;;;;1.05;0.70;;;10.20;90.70;;;;;;9171277;19;20034;-69
2023/01/12 08:40:22;;;;;;;3.45;1.13;;;10.20;91.60;;;;;;9175773;19;20014;-69
2023/01/12 08:46:47;;;;;;;1.90;0.98;;;10.30;92.80;;;;;;9173788;19;20082;-69
2023/01/12 08:49:48;;;;;;;1.48;1.17;;;10.40;91.80;;;;;;9173079;19;20022;-69
2023/01/12 08:52:50;;;;;;;3.28;1.20;;;10.40;92.80;;;;;;9169685;19;20039;-69
2023/01/12 08:55:52;;;;;;;1.98;0.98;;;10.50;92.40;;;;;;9171596;19;20014;-69
2023/01/12 08:58:56;;;;;;;1.58;0.90;;;10.40;92.50;;;;;;9173493;19;20026;-69
2023/01/12 09:01:58;;;;;;;2.40;1.20;;;10.30;90.90;;;;;;9172955;19;20038;-69
2023/01/12 09:04:59;;;;;;;4.13;1.15;;;10.30;90.90;;;;;;9172722;19;20035;-70
2023/01/12 09:08:00;;;;;;;2.38;1.10;;;10.30;91.00;;;;;;9169076;19;20033;-68
2023/01/12 09:11:03;;;;;;;6.30;1.38;;;10.40;91.10;;;;;;9168014;19;20519;-69
2023/01/12 09:14:05;;;;;;;3.60;1.27;;;10.40;91.10;;;;;;9168641;19;20339;-69
2023/01/12 09:17:07;;;;;;;1.85;1.13;;;10.50;91.40;;;;;;9170762;19;20484;-69
2023/01/12 09:20:09;;;;;;;2.33;1.10;;;10.50;91.20;;;;;;9174451;19;20018;-69
2023/01/12 09:23:10;;;;;;;2.28;1.55;;;10.50;91.40;;;;;;9172541;19;20022;-69
2023/01/12 09:26:15;;;;;;;2.42;1.48;;;10.50;91.60;;;;;;9171227;19;20027;-69
2023/01/12 09:29:16;;;;;;;1.75;1.60;;;10.50;90.90;;;;;;9171998;19;20010;-69
2023/01/12 09:32:17;;;;;;;1.77;1.52;;;10.50;90.80;;;;;;9173323;19;20018;-69
2023/01/12 09:35:23;;;;;;;2.38;1.90;;;10.50;90.80;;;;;;9174503;19;20035;-69
2023/01/12 09:38:25;;;;;;;3.10;1.85;;;10.60;90.80;;;;;;9172560;19;21581;-69
2023/01/12 09:48:13;;;;;;;2.58;2.05;;;10.60;90.90;;;;;;9172764;19;20023;-69
2023/01/12 09:51:30;;;;;;;3.90;2.50;;;10.60;90.80;;;;;;9166780;19;20023;-69
2023/01/12 09:54:34;;;;;;;2.80;1.95;;;10.70;90.90;;;;;;9161335;19;20010;-70
2023/01/12 09:57:54;;;;;;;4.00;2.00;;;10.70;90.90;;;;;;9167394;19;20064;-69
2023/01/12 10:00:58;;;;;;;3.83;1.80;;;10.70;90.90;;;;;;9168679;19;20354;-70
2023/01/12 10:04:01;;;;;;;1.95;1.60;;;10.80;90.90;;;;;;9169669;19;21925;-70
2023/01/12 10:07:02;;;;;;;3.03;1.70;;;10.70;90.90;;;;;;9170786;19;20056;-70
2023/01/12 10:10:05;;;;;;;1.80;1.52;;;10.80;90.90;;;;;;9168849;19;20014;-69
2023/01/12 10:13:12;;;;;;;3.90;1.42;;;10.80;90.90;;;;;;9169131;19;20030;-69
2023/01/12 10:16:32;;;;;;;1.25;1.15;;;10.80;91.00;;;;;;9167197;19;20090;-69
2023/01/12 10:19:45;;;;;;;2.47;1.02;;;10.90;91.00;;;;;;9174334;19;20022;-69
2023/01/12 10:22:58;;;;;;;1.30;1.20;;;10.90;90.90;;;;;;9172703;19;20025;-69
2023/01/12 10:26:23;;;;;;;2.10;1.25;;;10.90;91.00;;;;;;9170955;19;20022;-69
2023/01/12 10:29:25;;;;;;;1.45;1.10;;;10.90;91.00;;;;;;9165779;19;20756;-70
2023/01/12 10:32:27;;;;;;;2.13;1.27;;;10.90;91.00;;;;;;9168465;19;20021;-69
2023/01/12 10:35:35;;;;;;;1.08;1.00;;;10.90;91.00;;;;;;9176776;19;20019;-69
2023/01/12 10:38:38;;;;;;;1.75;0.95;;;11.00;91.00;;;;;;9172132;19;20622;-69
2023/01/12 10:41:41;;;;;;;1.38;1.27;;;11.00;91.00;;;;;;9170609;19;20035;-69
2023/01/12 10:44:42;;;;;;;2.50;1.20;;;11.00;91.00;;;;;;9171234;19;20019;-69
2023/01/12 10:47:45;;;;;;;1.50;1.05;;;11.00;91.00;;;;;;9165592;19;20027;-69
2023/01/12 10:51:17;;;;;;;2.40;1.33;;;11.00;91.00;;;;;;9167439;19;20046;-69
2023/01/12 10:54:23;;;;;;;3.25;0.90;;;11.00;91.00;;;;;;9163039;19;20019;-69
2023/01/12 10:57:24;;;;;;;1.40;1.30;;;11.10;91.00;;;;;;9164067;19;20030;-69
2023/01/12 11:00:27;;;;;;;1.13;1.02;;;11.10;91.00;;;;;;9168607;19;20034;-69
2023/01/12 11:03:36;;;;;;;3.47;1.17;;;11.10;91.00;;;;;;9166804;19;20030;-68
2023/01/12 11:06:40;;;;;;;1.38;1.10;;;11.10;91.10;;;;;;9174305;19;20031;-69
2023/01/12 11:09:42;;;;;;;1.08;1.00;;;11.20;91.00;;;;;;9175865;19;20042;-68
2023/01/12 11:12:54;;;;;;;2.17;1.27;;;11.20;91.00;;;;;;9177068;19;20494;-69
2023/01/12 11:16:07;;;;;;;1.08;0.98;;;11.20;91.00;;;;;;9176149;19;20018;-70
2023/01/12 11:19:16;;;;;;;1.48;1.27;;;11.20;91.00;;;;;;9176996;19;20032;-70
2023/01/12 11:22:26;;;;;;;1.08;1.00;;;11.20;91.10;;;;;;9170422;19;20022;-70
2023/01/12 11:25:33;;;;;;;1.00;0.85;;;11.20;91.00;;;;;;9177152;19;20018;-69
2023/01/12 11:28:42;;;;;;;1.20;1.10;;;11.30;91.10;;;;;;9175021;19;20027;-68
2023/01/12 11:31:46;;;;;;;0.80;0.80;;;11.30;91.10;;;;;;9173841;19;20025;-69
2023/01/12 11:34:55;;;;;;;1.02;0.90;;;11.30;91.10;;;;;;9176798;19;20568;-69
2023/01/12 11:38:02;;;;;;;0.80;0.80;;;11.30;91.10;;;;;;9171021;19;20018;-69
2023/01/12 11:41:09;;;;;;;0.77;0.77;;;11.30;91.10;;;;;;9174906;19;20015;-69
2023/01/12 11:44:29;;;;;;;1.17;0.90;;;11.30;91.10;;;;;;9174508;19;20044;-68
2023/01/12 11:47:38;;;;;;;1.45;0.90;;;11.40;91.20;;;;;;9170198;19;20341;-68
2023/01/12 11:50:44;;;;;;;1.45;0.75;;;11.40;91.10;;;;;;9176656;19;20035;-69
2023/01/12 11:53:46;;;;;;;1.58;1.08;;;11.40;91.10;;;;;;9171945;19;20026;-68
2023/01/12 11:57:10;;;;;;;0.90;0.70;;;11.40;91.10;;;;;;9171493;19;20022;-69
2023/01/12 12:00:34;;;;;;;1.13;0.80;;;11.40;91.10;;;;;;9172912;19;20421;-68
2023/01/12 12:03:44;;;;;;;0.57;0.57;;;11.40;91.10;;;;;;9178179;19;20015;-70
2023/01/12 12:07:19;;;;;;;0.88;0.68;;;11.50;91.10;;;;;;9171629;19;20038;-70
2023/01/12 12:10:27;;;;;;;0.65;0.28;;;11.50;91.20;;;;;;9174413;19;20022;-69
2023/01/12 12:14:10;;;;;;;1.17;0.70;;;11.50;91.10;;;;;;9172839;19;20019;-70
2023/01/12 12:17:15;;;;;;;0.50;0.50;;;11.50;91.20;;;;;;9169033;19;20022;-70
2023/01/12 12:20:32;;;;;;;1.08;0.60;;;11.50;91.10;;;;;;9175294;19;20010;-70
2023/01/12 12:23:56;;;;;;;0.38;0.38;;;11.50;91.20;;;;;;9172220;19;20021;-70
2023/01/12 12:27:35;;;;;;;0.67;0.60;;;11.50;91.20;;;;;;9176302;19;20064;-70
2023/01/12 12:30:54;;;;;;;0.52;0.50;;;11.50;91.20;;;;;;9179715;19;20042;-70
2023/01/12 12:34:42;;;;;;;1.10;0.60;;;11.50;91.20;;;;;;9177437;19;20011;-69
2023/01/12 12:37:54;;;;;;;0.40;0.40;;;11.50;91.20;;;;;;9171291;19;20021;-69
2023/01/12 12:48:34;;;;;;;0.88;0.88;;;11.60;91.20;;;;;;9177288;19;20027;-69
2023/01/12 12:51:37;;;;;;;0.60;0.60;;;11.60;91.20;;;;;;9179201;19;20018;-69
2023/01/12 12:54:39;;;;;;;0.70;0.70;;;11.60;91.20;;;;;;9163438;19;20022;-69
2023/01/12 12:58:01;;;;;;;0.95;0.85;;;11.60;91.30;;;;;;9163313;19;20030;-69
2023/01/12 13:01:21;;;;;;;1.00;0.90;;;11.80;91.90;;;;;;9168606;19;20048;-70
2023/01/12 13:04:52;;;;;;;0.80;0.80;;;11.80;92.10;;;;;;9169827;19;20861;-70
2023/01/12 13:07:54;;;;;;;0.85;0.50;;;11.60;91.30;;;;;;9160089;19;20058;-69
2023/01/12 13:10:57;;;;;;;0.60;0.52;;;11.70;91.20;;;;;;9162755;19;20510;-69
2023/01/12 13:14:02;;;;;;;0.70;0.70;;;11.60;91.20;;;;;;9163718;19;20026;-69
2023/01/12 13:17:30;;;;;;;0.50;0.50;;;11.60;91.20;;;;;;9164549;19;20015;-69
2023/01/12 13:20:49;;;;;;;0.40;0.40;;;11.60;91.30;;;;;;9167318;19;20022;-69
2023/01/12 13:23:51;;;;;;;0.60;0.60;;;11.70;91.80;;;;;;9171926;19;20350;-69
2023/01/12 13:26:54;;;;;;;0.90;0.50;;;11.70;91.20;;;;;;9165312;19;20023;-70
2023/01/12 13:30:27;;;;;;;0.57;0.57;;;11.70;91.80;;;;;;9168573;19;20027;-70
2023/01/12 13:33:29;;;;;;;3.83;1.20;;;11.70;91.30;;;;;;9172677;19;20078;-69
2023/01/12 13:36:32;;;;;;;1.83;0.63;;;11.70;91.30;;;;;;9164476;19;20023;-69
2023/01/12 13:39:38;;;;;;;0.90;0.80;;;11.70;91.30;;;;;;9163651;19;20357;-69
2023/01/12 13:46:01;;;;;;;1.25;0.55;;;11.70;91.30;;;;;;9164595;19;20030;-70
2023/01/12 13:49:22;;;;;;;0.60;0.60;;;11.70;91.30;;;;;;9162994;19;20113;-69
2023/01/12 13:52:35;;;;;;;0.50;0.50;;;11.70;91.30;;;;;;9165737;19;20015;-69
2023/01/12 13:55:37;;;;;;;0.45;0.45;;;11.70;91.40;;;;;;9165928;19;20468;-69
2023/01/12 13:58:41;;;;;;;0.40;0.40;;;11.70;91.30;;;;;;9171504;19;20034;-69
2023/01/12 14:01:44;;;;;;;;;;;11.70;91.30;;;;;;9170888;19;20034;-69
2023/01/12 14:05:11;;;;;;;1.40;0.40;;;11.70;91.30;;;;;;9173044;19;19922;-69
2023/01/12 14:08:38;;;;;;;0.30;0.30;;;11.70;91.30;;;;;;9164829;19;20015;-70
2023/01/12 14:12:22;;;;;;;0.55;0.40;;;11.70;91.30;;;;;;9165438;19;20023;-69
2023/01/12 14:18:56;;;;;;;0.25;0.25;;;11.70;91.30;;;;;;9167768;19;20521;-69
2023/01/12 14:22:03;;;;;;;0.98;0.60;;;11.70;91.30;;;;;;9167132;19;20046;-69
2023/01/12 14:25:20;;;;;;;0.43;0.43;;;11.70;91.30;;;;;;9163992;19;20021;-69
2023/01/12 14:28:22;;;;;;;0.20;0.20;;;11.70;91.40;;;;;;9168400;19;20022;-69
2023/01/12 14:31:31;;;;;;;0.45;0.45;;;11.70;91.30;;;;;;9160978;19;20032;-69
2023/01/12 14:34:35;;;;;;;0.82;0.43;;;11.70;91.40;;;;;;9159124;19;20010;-69
2023/01/12 14:37:38;;;;;;;;;;;11.70;91.40;;;;;;9156675;19;20019;-68
2023/01/12 14:40:39;;;;;;;0.30;0.30;;;11.70;91.30;;;;;;9158978;19;19919;-69
2023/01/12 14:47:01;;;;;;;0.50;0.50;;;11.70;91.30;;;;;;9164847;19;20064;-68
2023/01/12 14:50:11;;;;;;;0.60;0.60;;;11.70;91.30;;;;;;9168104;19;20018;-70
2023/01/12 14:53:29;;;;;;;1.95;0.60;;;11.70;91.40;;;;;;9163429;19;20032;-69
2023/01/12 14:56:42;;;;;;;0.80;0.80;;;11.60;91.30;;;;;;9163552;19;20062;-70
2023/01/12 14:59:46;;;;;;;0.80;0.77;;;11.60;91.30;;;;;;9166659;19;20025;-70
2023/01/12 15:02:50;;;;;;;0.85;0.80;;;11.60;91.30;;;;;;9165195;19;20049;-70
2023/01/12 15:05:54;;;;;;;0.85;0.63;;;11.60;91.40;;;;;;9165399;19;20042;-69
2023/01/12 15:08:59;;;;;;;0.73;0.73;;;11.60;91.40;;;;;;9167770;19;20022;-69
2023/01/12 15:12:28;;;;;;;1.35;0.70;;;11.60;91.40;;;;;;9161884;19;20011;-69
2023/01/12 15:25:34;;;;;;;0.82;0.60;;;11.60;91.40;;;;;;9166762;19;20875;-68
2023/01/12 15:25:37;;;;;;;2.05;1.30;;;11.50;91.30;;;;;;9162615;19;20022;-69
2023/01/12 15:28:39;;;;;;;3.45;1.10;;;11.50;91.30;;;;;;9163228;19;20019;-68
2023/01/12 15:31:41;;;;;;;1.20;0.90;;;11.50;91.40;;;;;;9165006;19;20025;-67
2023/01/12 15:34:42;;;;;;;0.70;0.70;;;11.50;91.40;;;;;;9162588;19;20630;-69
2023/01/12 15:37:44;;;;;;;2.47;1.10;;;11.50;91.40;;;;;;9160746;19;20509;-68
2023/01/12 15:40:46;;;;;;;1.25;1.15;;;11.50;91.40;;;;;;9164550;19;20022;-69
2023/01/12 15:43:48;;;;;;;1.35;0.90;;;11.50;91.40;;;;;;9158634;19;20021;-69
2023/01/12 15:46:49;;;;;;;2.95;1.20;;;11.50;91.40;;;;;;9163974;19;20030;-69
2023/01/12 15:49:52;;;;;;;1.42;1.05;;;11.50;91.40;;;;;;9162787;19;20018;-70
2023/01/12 15:52:55;;;;;;;2.42;1.25;;;11.50;91.40;;;;;;9166116;19;20026;-70
2023/01/12 15:55:56;;;;;;;4.43;2.30;;;11.50;91.40;;;;;;9173235;19;20011;-70
2023/01/12 15:58:58;;;;;;;1.55;0.85;;;11.50;91.40;;;;;;9171191;19;20023;-68
2023/01/12 16:01:59;;;;;;;2.75;2.10;;;11.50;91.40;;;;;;9169841;19;20396;-70
2023/01/12 16:05:02;;;;;;;1.02;1.00;;;11.50;91.40;;;;;;9170058;19;20029;-70
2023/01/12 16:08:04;;;;;;;1.33;1.23;;;11.50;91.40;;;;;;9170452;19;20392;-69
2023/01/12 16:11:13;;;;;;;4.72;1.58;;;11.50;91.40;;;;;;9176305;19;20482;-70
2023/01/12 16:14:14;;;;;;;2.05;1.40;;;11.50;91.40;;;;;;9172190;19;20039;-67
2023/01/12 16:17:16;;;;;;;1.38;1.20;;;11.50;91.40;;;;;;9170272;19;20019;-68
2023/01/12 16:20:19;;;;;;;2.30;1.38;;;11.50;91.40;;;;;;9167640;19;20015;-69
2023/01/12 16:23:20;;;;;;;1.13;1.00;;;11.50;91.40;;;;;;9167531;19;20059;-69
2023/01/12 16:26:23;;;;;;;4.45;1.17;;;11.50;91.40;;;;;;9167431;19;20349;-69
2023/01/12 16:29:25;;;;;;;1.30;1.10;;;11.90;92.00;;;;;;9175718;19;20029;-69
2023/01/12 16:32:26;;;;;;;1.00;1.00;;;11.50;91.40;;;;;;9181516;19;20022;-70
2023/01/12 16:35:28;;;;;;;3.00;1.60;;;11.50;91.50;;;;;;9181387;19;20022;-69
2023/01/12 16:38:29;;;;;;;2.72;1.77;;;11.50;91.50;;;;;;9177855;19;20029;-70
2023/01/12 16:41:31;;;;;;;2.30;1.90;;;11.50;91.50;;;;;;9180697;19;20035;-69
2023/01/12 16:44:37;;;;;;;2.97;1.60;;;11.50;91.40;;;;;;9180452;19;20038;-69
2023/01/12 16:47:39;;;;;;;1.40;1.25;;;11.50;91.40;;;;;;9181006;19;21192;-70
2023/01/12 16:50:41;;;;;;;1.70;1.60;;;11.50;91.40;;;;;;9181120;19;20487;-69
2023/01/12 16:53:45;;;;;;;1.73;1.60;;;11.50;91.40;;;;;;9177143;19;20483;-69
2023/01/12 16:56:46;;;;;;;1.00;0.98;;;11.50;91.40;;;;;;9178503;19;20018;-69
2023/01/12 16:59:48;;;;;;;2.28;1.23;;;11.50;91.40;;;;;;9180515;19;20070;-69
2023/01/12 17:02:50;;;;;;;1.00;0.90;;;11.50;91.40;;;;;;9178930;19;20059;-69
2023/01/12 17:05:52;;;;;;;2.45;1.20;;;11.50;91.40;;;;;;9180006;19;20355;-69
2023/01/12 17:08:54;;;;;;;2.70;1.30;;;11.50;91.40;;;;;;9179424;19;20488;-69
2023/01/12 17:11:57;;;;;;;1.48;1.38;;;11.50;91.40;;;;;;9174968;19;20023;-69
2023/01/12 17:14:58;;;;;;;1.50;1.20;;;11.50;91.40;;;;;;9180191;19;20025;-69